sensor_id;sensor_type;location;lat;lon;timestamp;pressure;altitude;pressure_sealevel;temperature
80962;BMP280;70424;55.154;14.722;2023-10-13T00:01:54;101238.69;;;12.48
80962;BMP280;70424;55.154;14.722;2023-10-13T00:04:23;101229.88;;;12.49
80962;BMP280;70424;55.154;14.722;2023-10-13T00:06:51;101233.31;;;12.50
80962;BMP280;70424;55.154;14.722;2023-10-13T00:09:16;101230.59;;;12.50
80962;BMP280;70424;55.154;14.722;2023-10-13T00:11:42;101230.59;;;12.50
80962;BMP280;70424;55.154;14.722;2023-10-13T00:14:10;101225.56;;;12.46
80962;BMP280;70424;55.154;14.722;2023-10-13T00:16:36;101222.09;;;12.46
80962;BMP280;70424;55.154;14.722;2023-10-13T00:19:04;101223.41;;;12.45
80962;BMP280;70424;55.154;14.722;2023-10-13T00:21:31;101224.31;;;12.37
80962;BMP280;70424;55.154;14.722;2023-10-13T00:23:57;101224.31;;;12.37
80962;BMP280;70424;55.154;14.722;2023-10-13T00:26:26;101227.53;;;12.34
80962;BMP280;70424;55.154;14.722;2023-10-13T00:28:59;101224.19;;;12.35
80962;BMP280;70424;55.154;14.722;2023-10-13T00:31:40;101230.38;;;12.36
80962;BMP280;70424;55.154;14.722;2023-10-13T00:34:08;101222.16;;;12.36
80962;BMP280;70424;55.154;14.722;2023-10-13T00:36:57;101218.84;;;12.37
80962;BMP280;70424;55.154;14.722;2023-10-13T00:39:41;101225.88;;;12.41
80962;BMP280;70424;55.154;14.722;2023-10-13T00:42:09;101216.22;;;12.40
80962;BMP280;70424;55.154;14.722;2023-10-13T00:44:43;101212.19;;;12.41
80962;BMP280;70424;55.154;14.722;2023-10-13T00:47:13;101204.78;;;12.43
80962;BMP280;70424;55.154;14.722;2023-10-13T00:49:42;101210.75;;;12.40
80962;BMP280;70424;55.154;14.722;2023-10-13T00:52:12;101215.50;;;12.39
80962;BMP280;70424;55.154;14.722;2023-10-13T00:54:41;101213.94;;;12.36
80962;BMP280;70424;55.154;14.722;2023-10-13T00:57:12;101215.25;;;12.35
80962;BMP280;70424;55.154;14.722;2023-10-13T00:59:52;101210.34;;;12.33
80962;BMP280;70424;55.154;14.722;2023-10-13T01:02:19;101196.34;;;12.29
80962;BMP280;70424;55.154;14.722;2023-10-13T01:05:06;101199.00;;;12.27
80962;BMP280;70424;55.154;14.722;2023-10-13T01:07:35;101200.28;;;12.26
80962;BMP280;70424;55.154;14.722;2023-10-13T01:10:03;101207.81;;;12.26
80962;BMP280;70424;55.154;14.722;2023-10-13T01:12:30;101211.84;;;12.25
80962;BMP280;70424;55.154;14.722;2023-10-13T01:14:56;101215.16;;;12.23
80962;BMP280;70424;55.154;14.722;2023-10-13T01:17:22;101218.50;;;12.22
80962;BMP280;70424;55.154;14.722;2023-10-13T01:19:49;101207.72;;;12.14
80962;BMP280;70424;55.154;14.722;2023-10-13T01:22:14;101220.25;;;12.17
80962;BMP280;70424;55.154;14.722;2023-10-13T01:24:39;101219.69;;;12.19
80962;BMP280;70424;55.154;14.722;2023-10-13T01:27:06;101208.72;;;12.19
80962;BMP280;70424;55.154;14.722;2023-10-13T01:29:48;101200.63;;;12.21
80962;BMP280;70424;55.154;14.722;2023-10-13T01:32:17;101206.53;;;12.17
80962;BMP280;70424;55.154;14.722;2023-10-13T01:34:43;101213.47;;;12.18
80962;BMP280;70424;55.154;14.722;2023-10-13T01:37:11;101213.47;;;12.18
80962;BMP280;70424;55.154;14.722;2023-10-13T01:39:37;101224.44;;;12.18
80962;BMP280;70424;55.154;14.722;2023-10-13T01:42:02;101224.44;;;12.18
80962;BMP280;70424;55.154;14.722;2023-10-13T01:44:28;101218.38;;;12.20
80962;BMP280;70424;55.154;14.722;2023-10-13T01:46:56;101223.97;;;12.22
80962;BMP280;70424;55.154;14.722;2023-10-13T01:49:24;101213.88;;;12.24
80962;BMP280;70424;55.154;14.722;2023-10-13T01:51:49;101213.41;;;12.28
80962;BMP280;70424;55.154;14.722;2023-10-13T01:54:15;101201.72;;;12.27
80962;BMP280;70424;55.154;14.722;2023-10-13T01:56:41;101203.44;;;12.32
80962;BMP280;70424;55.154;14.722;2023-10-13T01:59:12;101197.38;;;12.34
80962;BMP280;70424;55.154;14.722;2023-10-13T02:01:38;101196.91;;;12.37
80962;BMP280;70424;55.154;14.722;2023-10-13T02:04:05;101202.50;;;12.40
80962;BMP280;70424;55.154;14.722;2023-10-13T02:06:33;101197.16;;;12.42
80962;BMP280;70424;55.154;14.722;2023-10-13T02:09:06;101201.34;;;12.43
80962;BMP280;70424;55.154;14.722;2023-10-13T02:11:42;101191.69;;;12.42
80962;BMP280;70424;55.154;14.722;2023-10-13T02:14:11;101201.00;;;12.48
80962;BMP280;70424;55.154;14.722;2023-10-13T02:16:37;101195.06;;;12.52
80962;BMP280;70424;55.154;14.722;2023-10-13T02:19:02;101184.69;;;12.50
80962;BMP280;70424;55.154;14.722;2023-10-13T02:21:31;101181.22;;;12.50
80962;BMP280;70424;55.154;14.722;2023-10-13T02:24:00;101193.75;;;12.53
80962;BMP280;70424;55.154;14.722;2023-10-13T02:26:26;101187.56;;;12.52
80962;BMP280;70424;55.154;14.722;2023-10-13T02:29:04;101191.03;;;12.53
80962;BMP280;70424;55.154;14.722;2023-10-13T02:31:34;101182.19;;;12.54
80962;BMP280;70424;55.154;14.722;2023-10-13T02:34:00;101177.91;;;12.51
80962;BMP280;70424;55.154;14.722;2023-10-13T02:36:26;101178.88;;;12.56
80962;BMP280;70424;55.154;14.722;2023-10-13T02:39:12;101171.94;;;12.55
80962;BMP280;70424;55.154;14.722;2023-10-13T02:41:39;101175.41;;;12.55
80962;BMP280;70424;55.154;14.722;2023-10-13T02:44:06;101171.81;;;12.53
80962;BMP280;70424;55.154;14.722;2023-10-13T02:46:32;101162.16;;;12.52
80962;BMP280;70424;55.154;14.722;2023-10-13T02:49:02;101170.25;;;12.50
80962;BMP280;70424;55.154;14.722;2023-10-13T02:51:35;101168.69;;;12.47
80962;BMP280;70424;55.154;14.722;2023-10-13T02:54:01;101149.97;;;12.43
80962;BMP280;70424;55.154;14.722;2023-10-13T02:56:45;101157.94;;;12.39
80962;BMP280;70424;55.154;14.722;2023-10-13T02:59:24;101170.91;;;12.38
80962;BMP280;70424;55.154;14.722;2023-10-13T03:02:06;101176.25;;;12.36
80962;BMP280;70424;55.154;14.722;2023-10-13T03:05:04;101163.03;;;12.33
80962;BMP280;70424;55.154;14.722;2023-10-13T03:07:38;101163.03;;;12.33
80962;BMP280;70424;55.154;14.722;2023-10-13T03:10:08;101153.22;;;12.30
80962;BMP280;70424;55.154;14.722;2023-10-13T03:12:37;101136.66;;;12.28
80962;BMP280;70424;55.154;14.722;2023-10-13T03:15:04;101135.09;;;12.25
80962;BMP280;70424;55.154;14.722;2023-10-13T03:17:44;101127.22;;;12.19
80962;BMP280;70424;55.154;14.722;2023-10-13T03:20:15;101127.66;;;12.16
80962;BMP280;70424;55.154;14.722;2023-10-13T03:22:48;101127.75;;;12.06
80962;BMP280;70424;55.154;14.722;2023-10-13T03:25:17;101135.41;;;11.98
80962;BMP280;70424;55.154;14.722;2023-10-13T03:27:50;101137.50;;;11.88
80962;BMP280;70424;55.154;14.722;2023-10-13T03:30:15;101126.47;;;11.76
80962;BMP280;70424;55.154;14.722;2023-10-13T03:32:42;101122.31;;;11.65
80962;BMP280;70424;55.154;14.722;2023-10-13T03:35:20;101128.59;;;11.56
80962;BMP280;70424;55.154;14.722;2023-10-13T03:38:03;101124.00;;;11.49
80962;BMP280;70424;55.154;14.722;2023-10-13T03:40:29;101116.56;;;11.40
80962;BMP280;70424;55.154;14.722;2023-10-13T03:42:56;101118.91;;;11.34
80962;BMP280;70424;55.154;14.722;2023-10-13T03:45:41;101108.81;;;11.27
80962;BMP280;70424;55.154;14.722;2023-10-13T03:48:14;101101.94;;;11.16
80962;BMP280;70424;55.154;14.722;2023-10-13T03:50:53;101111.88;;;11.11
80962;BMP280;70424;55.154;14.722;2023-10-13T03:53:41;101099.66;;;11.03
80962;BMP280;70424;55.154;14.722;2023-10-13T03:56:26;101103.13;;;10.94
80962;BMP280;70424;55.154;14.722;2023-10-13T03:58:52;101094.97;;;10.84
80962;BMP280;70424;55.154;14.722;2023-10-13T04:01:20;101080.88;;;10.78
80962;BMP280;70424;55.154;14.722;2023-10-13T04:03:54;101078.41;;;10.72
80962;BMP280;70424;55.154;14.722;2023-10-13T04:06:27;101073.69;;;10.63
80962;BMP280;70424;55.154;14.722;2023-10-13T04:09:18;101076.13;;;10.59
80962;BMP280;70424;55.154;14.722;2023-10-13T04:11:57;101075.56;;;10.51
80962;BMP280;70424;55.154;14.722;2023-10-13T04:17:12;101077.31;;;10.37
80962;BMP280;70424;55.154;14.722;2023-10-13T04:19:40;101069.53;;;10.33
80962;BMP280;70424;55.154;14.722;2023-10-13T04:22:25;101054.13;;;10.28
80962;BMP280;70424;55.154;14.722;2023-10-13T04:25:14;101041.34;;;10.21
80962;BMP280;70424;55.154;14.722;2023-10-13T04:27:58;101040.63;;;10.21
80962;BMP280;70424;55.154;14.722;2023-10-13T04:30:56;101028.13;;;10.18
80962;BMP280;70424;55.154;14.722;2023-10-13T04:33:24;101032.88;;;10.17
80962;BMP280;70424;55.154;14.722;2023-10-13T04:36:07;101036.16;;;10.15
80962;BMP280;70424;55.154;14.722;2023-10-13T04:38:48;101033.41;;;10.15
80962;BMP280;70424;55.154;14.722;2023-10-13T04:41:35;101031.16;;;10.12
80962;BMP280;70424;55.154;14.722;2023-10-13T04:44:03;101039.47;;;10.14
80962;BMP280;70424;55.154;14.722;2023-10-13T04:46:47;101028.41;;;10.12
80962;BMP280;70424;55.154;14.722;2023-10-13T04:49:12;101029.72;;;10.11
80962;BMP280;70424;55.154;14.722;2023-10-13T04:51:58;101027.56;;;10.09
80962;BMP280;70424;55.154;14.722;2023-10-13T04:54:45;101012.44;;;10.08
80962;BMP280;70424;55.154;14.722;2023-10-13T04:57:11;101012.59;;;10.10
80962;BMP280;70424;55.154;14.722;2023-10-13T04:59:59;101005.69;;;10.09
80962;BMP280;70424;55.154;14.722;2023-10-13T05:02:38;101009.16;;;10.10
80962;BMP280;70424;55.154;14.722;2023-10-13T05:05:09;101006.97;;;10.08
80962;BMP280;70424;55.154;14.722;2023-10-13T05:07:40;100998.22;;;10.10
80962;BMP280;70424;55.154;14.722;2023-10-13T05:10:25;100996.75;;;10.09
80962;BMP280;70424;55.154;14.722;2023-10-13T05:13:09;100988.44;;;10.07
80962;BMP280;70424;55.154;14.722;2023-10-13T05:15:53;100992.59;;;10.08
80962;BMP280;70424;55.154;14.722;2023-10-13T05:18:37;100993.75;;;10.05
80962;BMP280;70424;55.154;14.722;2023-10-13T05:21:21;100986.56;;;10.00
80962;BMP280;70424;55.154;14.722;2023-10-13T05:24:05;100979.97;;;10.03
80962;BMP280;70424;55.154;14.722;2023-10-13T05:26:49;100974.78;;;9.97
80962;BMP280;70424;55.154;14.722;2023-10-13T05:29:33;100973.06;;;9.92
80962;BMP280;70424;55.154;14.722;2023-10-13T05:32:17;100964.88;;;9.92
80962;BMP280;70424;55.154;14.722;2023-10-13T05:35:01;100967.03;;;9.94
80962;BMP280;70424;55.154;14.722;2023-10-13T05:37:45;100972.78;;;9.98
80962;BMP280;70424;55.154;14.722;2023-10-13T05:40:29;100964.88;;;10.02
80962;BMP280;70424;55.154;14.722;2023-10-13T05:43:13;100956.22;;;10.05
80962;BMP280;70424;55.154;14.722;2023-10-13T05:46:03;100953.94;;;10.11
80962;BMP280;70424;55.154;14.722;2023-10-13T05:48:47;100923.91;;;10.02
80962;BMP280;70424;55.154;14.722;2023-10-13T05:51:28;100937.53;;;10.21
80962;BMP280;70424;55.154;14.722;2023-10-13T05:54:13;100933.94;;;10.28
80962;BMP280;70424;55.154;14.722;2023-10-13T05:56:42;100927.44;;;10.33
80962;BMP280;70424;55.154;14.722;2023-10-13T05:59:27;100909.91;;;10.36
80962;BMP280;70424;55.154;14.722;2023-10-13T06:02:11;100894.66;;;10.43
80962;BMP280;70424;55.154;14.722;2023-10-13T06:04:56;100905.53;;;10.53
80962;BMP280;70424;55.154;14.722;2023-10-13T06:07:39;100927.50;;;10.64
80962;BMP280;70424;55.154;14.722;2023-10-13T06:10:23;100929.16;;;10.79
80962;BMP280;70424;55.154;14.722;2023-10-13T06:13:07;100921.47;;;10.97
80962;BMP280;70424;55.154;14.722;2023-10-13T06:15:51;100922.38;;;11.11
80962;BMP280;70424;55.154;14.722;2023-10-13T06:18:35;100920.84;;;11.29
80962;BMP280;70424;55.154;14.722;2023-10-13T06:21:20;100912.81;;;11.43
80962;BMP280;70424;55.154;14.722;2023-10-13T06:24:04;100924.56;;;11.55
80962;BMP280;70424;55.154;14.722;2023-10-13T06:26:48;100924.59;;;11.67
80962;BMP280;70424;55.154;14.722;2023-10-13T06:29:32;100930.84;;;11.79
80962;BMP280;70424;55.154;14.722;2023-10-13T06:31:58;100933.16;;;11.94
80962;BMP280;70424;55.154;14.722;2023-10-13T06:34:29;100921.97;;;12.02
80962;BMP280;70424;55.154;14.722;2023-10-13T06:37:12;100923.00;;;12.18
80962;BMP280;70424;55.154;14.722;2023-10-13T06:39:57;100912.16;;;12.32
80962;BMP280;70424;55.154;14.722;2023-10-13T06:42:27;100918.38;;;12.44
80962;BMP280;70424;55.154;14.722;2023-10-13T06:44:53;100926.00;;;12.57
80962;BMP280;70424;55.154;14.722;2023-10-13T06:47:19;100926.59;;;12.67
80962;BMP280;70424;55.154;14.722;2023-10-13T06:49:46;100917.03;;;12.80
80962;BMP280;70424;55.154;14.722;2023-10-13T06:52:14;100912.25;;;12.92
80962;BMP280;70424;55.154;14.722;2023-10-13T06:54:41;100891.63;;;13.03
80962;BMP280;70424;55.154;14.722;2023-10-13T06:57:08;100879.75;;;13.12
80962;BMP280;70424;55.154;14.722;2023-10-13T06:59:42;100874.47;;;13.28
80962;BMP280;70424;55.154;14.722;2023-10-13T07:02:08;100881.13;;;13.37
80962;BMP280;70424;55.154;14.722;2023-10-13T07:04:35;100880.13;;;13.44
80962;BMP280;70424;55.154;14.722;2023-10-13T07:07:05;100879.84;;;13.51
80962;BMP280;70424;55.154;14.722;2023-10-13T07:09:31;100873.28;;;13.56
80962;BMP280;70424;55.154;14.722;2023-10-13T07:12:00;100867.41;;;13.62
80962;BMP280;70424;55.154;14.722;2023-10-13T07:14:29;100858.66;;;13.65
80962;BMP280;70424;55.154;14.722;2023-10-13T07:17:00;100852.69;;;13.69
80962;BMP280;70424;55.154;14.722;2023-10-13T07:19:29;100855.03;;;13.75
80962;BMP280;70424;55.154;14.722;2023-10-13T07:21:59;100859.41;;;13.80
80962;BMP280;70424;55.154;14.722;2023-10-13T07:24:28;100854.13;;;13.84
80962;BMP280;70424;55.154;14.722;2023-10-13T07:26:59;100858.44;;;13.87
80962;BMP280;70424;55.154;14.722;2023-10-13T07:29:30;100859.22;;;13.89
80962;BMP280;70424;55.154;14.722;2023-10-13T07:31:55;100851.09;;;13.91
80962;BMP280;70424;55.154;14.722;2023-10-13T07:34:20;100844.41;;;13.94
80962;BMP280;70424;55.154;14.722;2023-10-13T07:36:56;100849.38;;;13.98
80962;BMP280;70424;55.154;14.722;2023-10-13T07:39:26;100834.31;;;13.99
80962;BMP280;70424;55.154;14.722;2023-10-13T07:41:53;100831.66;;;14.01
80962;BMP280;70424;55.154;14.722;2023-10-13T07:44:22;100835.94;;;14.04
80962;BMP280;70424;55.154;14.722;2023-10-13T07:46:54;100829.94;;;14.08
80962;BMP280;70424;55.154;14.722;2023-10-13T07:49:29;100819.75;;;14.10
80962;BMP280;70424;55.154;14.722;2023-10-13T07:52:00;100806.22;;;14.14
80962;BMP280;70424;55.154;14.722;2023-10-13T07:54:42;100800.94;;;14.18
80962;BMP280;70424;55.154;14.722;2023-10-13T07:57:07;100794.09;;;14.19
80962;BMP280;70424;55.154;14.722;2023-10-13T07:59:33;100788.00;;;14.21
80962;BMP280;70424;55.154;14.722;2023-10-13T08:02:00;100777.09;;;14.23
80962;BMP280;70424;55.154;14.722;2023-10-13T08:04:38;100777.72;;;14.21
80962;BMP280;70424;55.154;14.722;2023-10-13T08:07:03;100793.81;;;14.27
80962;BMP280;70424;55.154;14.722;2023-10-13T08:09:41;100783.63;;;14.29
80962;BMP280;70424;55.154;14.722;2023-10-13T08:12:08;100783.81;;;14.33
80962;BMP280;70424;55.154;14.722;2023-10-13T08:14:37;100776.28;;;14.34
80962;BMP280;70424;55.154;14.722;2023-10-13T08:17:07;100770.38;;;14.40
80962;BMP280;70424;55.154;14.722;2023-10-13T08:19:39;100761.09;;;14.47
80962;BMP280;70424;55.154;14.722;2023-10-13T08:22:11;100769.63;;;14.53
80962;BMP280;70424;55.154;14.722;2023-10-13T08:24:39;100765.00;;;14.57
80962;BMP280;70424;55.154;14.722;2023-10-13T08:27:06;100745.88;;;14.59
80962;BMP280;70424;55.154;14.722;2023-10-13T08:29:41;100730.16;;;14.62
80962;BMP280;70424;55.154;14.722;2023-10-13T08:32:30;100743.41;;;14.65
80962;BMP280;70424;55.154;14.722;2023-10-13T08:34:56;100732.91;;;14.62
80962;BMP280;70424;55.154;14.722;2023-10-13T08:37:22;100710.19;;;14.61
80962;BMP280;70424;55.154;14.722;2023-10-13T08:39:48;100705.34;;;14.60
80962;BMP280;70424;55.154;14.722;2023-10-13T08:45:08;100683.09;;;14.56
80962;BMP280;70424;55.154;14.722;2023-10-13T08:47:55;100685.78;;;14.54
80962;BMP280;70424;55.154;14.722;2023-10-13T08:53:17;100683.94;;;14.58
80962;BMP280;70424;55.154;14.722;2023-10-13T08:56:08;100675.25;;;14.64
80962;BMP280;70424;55.154;14.722;2023-10-13T09:01:35;100656.88;;;14.69
80962;BMP280;70424;55.154;14.722;2023-10-13T09:04:12;100660.47;;;14.71
80962;BMP280;70424;55.154;14.722;2023-10-13T09:07:03;100648.84;;;14.73
80962;BMP280;70424;55.154;14.722;2023-10-13T09:09:51;100633.94;;;14.78
80962;BMP280;70424;55.154;14.722;2023-10-13T09:14:58;100641.28;;;14.89
80962;BMP280;70424;55.154;14.722;2023-10-13T09:17:28;100616.00;;;14.92
80962;BMP280;70424;55.154;14.722;2023-10-13T09:22:52;100614.22;;;14.99
80962;BMP280;70424;55.154;14.722;2023-10-13T09:25:30;100612.09;;;14.97
80962;BMP280;70424;55.154;14.722;2023-10-13T09:28:20;100602.94;;;14.93
80962;BMP280;70424;55.154;14.722;2023-10-13T09:30:54;100605.63;;;14.91
80962;BMP280;70424;55.154;14.722;2023-10-13T09:33:23;100591.59;;;14.85
80962;BMP280;70424;55.154;14.722;2023-10-13T09:36:15;100587.16;;;14.78
80962;BMP280;70424;55.154;14.722;2023-10-13T09:38:42;100586.44;;;14.77
80962;BMP280;70424;55.154;14.722;2023-10-13T09:41:13;100584.22;;;14.74
80962;BMP280;70424;55.154;14.722;2023-10-13T09:43:45;100573.63;;;14.68
80962;BMP280;70424;55.154;14.722;2023-10-13T09:46:20;100579.78;;;14.67
80962;BMP280;70424;55.154;14.722;2023-10-13T09:48:49;100568.06;;;14.66
80962;BMP280;70424;55.154;14.722;2023-10-13T09:51:29;100561.03;;;14.63
80962;BMP280;70424;55.154;14.722;2023-10-13T09:54:03;100559.19;;;14.68
80962;BMP280;70424;55.154;14.722;2023-10-13T09:56:55;100536.63;;;14.55
80962;BMP280;70424;55.154;14.722;2023-10-13T09:59:24;100540.84;;;14.72
80962;BMP280;70424;55.154;14.722;2023-10-13T10:02:00;100540.84;;;14.72
80962;BMP280;70424;55.154;14.722;2023-10-13T10:04:33;100523.00;;;14.73
80962;BMP280;70424;55.154;14.722;2023-10-13T10:07:07;100522.34;;;14.75
80962;BMP280;70424;55.154;14.722;2023-10-13T10:09:34;100523.69;;;14.74
80962;BMP280;70424;55.154;14.722;2023-10-13T10:12:32;100518.81;;;14.72
80962;BMP280;70424;55.154;14.722;2023-10-13T10:15:20;100497.41;;;14.71
80962;BMP280;70424;55.154;14.722;2023-10-13T10:17:56;100503.03;;;14.73
80962;BMP280;70424;55.154;14.722;2023-10-13T10:20:36;100498.84;;;14.72
80962;BMP280;70424;55.154;14.722;2023-10-13T10:23:08;100482.88;;;14.68
80962;BMP280;70424;55.154;14.722;2023-10-13T10:25:47;100482.81;;;14.66
80962;BMP280;70424;55.154;14.722;2023-10-13T10:28:13;100471.84;;;14.68
80962;BMP280;70424;55.154;14.722;2023-10-13T10:30:42;100465.72;;;14.70
80962;BMP280;70424;55.154;14.722;2023-10-13T10:33:08;100459.72;;;14.73
80962;BMP280;70424;55.154;14.722;2023-10-13T10:35:43;100452.25;;;14.76
80962;BMP280;70424;55.154;14.722;2023-10-13T10:38:13;100436.44;;;14.76
80962;BMP280;70424;55.154;14.722;2023-10-13T10:40:55;100424.91;;;14.80
80962;BMP280;70424;55.154;14.722;2023-10-13T10:43:25;100429.78;;;14.81
80962;BMP280;70424;55.154;14.722;2023-10-13T10:45:51;100415.47;;;14.85
80962;BMP280;70424;55.154;14.722;2023-10-13T10:48:18;100413.69;;;14.91
80962;BMP280;70424;55.154;14.722;2023-10-13T10:51:04;100405.69;;;14.97
80962;BMP280;70424;55.154;14.722;2023-10-13T10:53:39;100396.22;;;15.03
80962;BMP280;70424;55.154;14.722;2023-10-13T10:56:11;100396.59;;;15.11
80962;BMP280;70424;55.154;14.722;2023-10-13T10:58:49;100386.59;;;15.19
80962;BMP280;70424;55.154;14.722;2023-10-13T11:01:24;100382.81;;;15.28
80962;BMP280;70424;55.154;14.722;2023-10-13T11:03:57;100367.31;;;15.37
80962;BMP280;70424;55.154;14.722;2023-10-13T11:06:26;100364.94;;;15.47
80962;BMP280;70424;55.154;14.722;2023-10-13T11:09:05;100355.50;;;15.52
80962;BMP280;70424;55.154;14.722;2023-10-13T11:11:55;100344.16;;;15.62
80962;BMP280;70424;55.154;14.722;2023-10-13T11:14:29;100335.47;;;15.70
80962;BMP280;70424;55.154;14.722;2023-10-13T11:16:56;100336.47;;;15.78
80962;BMP280;70424;55.154;14.722;2023-10-13T11:19:41;100334.69;;;15.87
80962;BMP280;70424;55.154;14.722;2023-10-13T11:22:18;100325.38;;;15.96
80962;BMP280;70424;55.154;14.722;2023-10-13T11:25:08;100310.50;;;16.05
80962;BMP280;70424;55.154;14.722;2023-10-13T11:27:37;100303.22;;;16.14
80962;BMP280;70424;55.154;14.722;2023-10-13T11:30:13;100300.66;;;16.20
80962;BMP280;70424;55.154;14.722;2023-10-13T11:32:41;100300.16;;;16.25
80962;BMP280;70424;55.154;14.722;2023-10-13T11:35:10;100298.81;;;16.26
80962;BMP280;70424;55.154;14.722;2023-10-13T11:37:54;100289.97;;;16.30
80962;BMP280;70424;55.154;14.722;2023-10-13T11:40:31;100279.81;;;16.35
80962;BMP280;70424;55.154;14.722;2023-10-13T11:43:10;100290.31;;;16.40
80962;BMP280;70424;55.154;14.722;2023-10-13T11:45:47;100257.91;;;16.41
80962;BMP280;70424;55.154;14.722;2023-10-13T11:48:31;100261.59;;;16.47
80962;BMP280;70424;55.154;14.722;2023-10-13T11:51:08;100249.91;;;16.49
80962;BMP280;70424;55.154;14.722;2023-10-13T11:53:37;100238.22;;;16.50
80962;BMP280;70424;55.154;14.722;2023-10-13T11:56:03;100239.59;;;16.49
80962;BMP280;70424;55.154;14.722;2023-10-13T11:58:34;100243.78;;;16.52
80962;BMP280;70424;55.154;14.722;2023-10-13T12:01:00;100234.81;;;16.52
80962;BMP280;70424;55.154;14.722;2023-10-13T12:03:41;100234.91;;;16.54
80962;BMP280;70424;55.154;14.722;2023-10-13T12:06:25;100216.41;;;16.58
80962;BMP280;70424;55.154;14.722;2023-10-13T12:09:04;100210.28;;;16.62
80962;BMP280;70424;55.154;14.722;2023-10-13T12:14:13;100195.16;;;16.63
80962;BMP280;70424;55.154;14.722;2023-10-13T12:16:47;100195.84;;;16.63
80962;BMP280;70424;55.154;14.722;2023-10-13T12:19:20;100182.06;;;16.63
80962;BMP280;70424;55.154;14.722;2023-10-13T12:21:50;100173.72;;;16.61
80962;BMP280;70424;55.154;14.722;2023-10-13T12:24:28;100178.59;;;16.63
80962;BMP280;70424;55.154;14.722;2023-10-13T12:27:00;100166.84;;;16.62
80962;BMP280;70424;55.154;14.722;2023-10-13T12:29:25;100150.38;;;16.64
80962;BMP280;70424;55.154;14.722;2023-10-13T12:31:57;100137.28;;;16.65
80962;BMP280;70424;55.154;14.722;2023-10-13T12:34:38;100131.75;;;16.65
80962;BMP280;70424;55.154;14.722;2023-10-13T12:37:30;100125.59;;;16.66
80962;BMP280;70424;55.154;14.722;2023-10-13T12:40:10;100125.53;;;16.64
80962;BMP280;70424;55.154;14.722;2023-10-13T12:42:55;100102.09;;;16.65
80962;BMP280;70424;55.154;14.722;2023-10-13T12:48:24;100093.78;;;16.63
80962;BMP280;70424;55.154;14.722;2023-10-13T12:51:08;100086.84;;;16.62
80962;BMP280;70424;55.154;14.722;2023-10-13T12:53:53;100060.59;;;16.61
80962;BMP280;70424;55.154;14.722;2023-10-13T12:56:19;100067.50;;;16.60
80962;BMP280;70424;55.154;14.722;2023-10-13T12:58:51;100059.94;;;16.61
80962;BMP280;70424;55.154;14.722;2023-10-13T13:01:24;100051.47;;;16.55
80962;BMP280;70424;55.154;14.722;2023-10-13T13:03:52;100048.75;;;16.57
80962;BMP280;70424;55.154;14.722;2023-10-13T13:06:23;100028.00;;;16.54
80962;BMP280;70424;55.154;14.722;2023-10-13T13:08:52;100005.81;;;16.50
80962;BMP280;70424;55.154;14.722;2023-10-13T13:11:17;100012.69;;;16.49
80962;BMP280;70424;55.154;14.722;2023-10-13T13:13:43;100004.41;;;16.49
80962;BMP280;70424;55.154;14.722;2023-10-13T13:16:11;99983.69;;;16.48
80962;BMP280;70424;55.154;14.722;2023-10-13T13:18:36;99958.88;;;16.48
80962;BMP280;70424;55.154;14.722;2023-10-13T13:21:02;99967.16;;;16.48
80962;BMP280;70424;55.154;14.722;2023-10-13T13:23:31;99956.09;;;16.48
80962;BMP280;70424;55.154;14.722;2023-10-13T13:25:57;99959.50;;;16.46
80962;BMP280;70424;55.154;14.722;2023-10-13T13:28:23;99960.22;;;16.47
80962;BMP280;70424;55.154;14.722;2023-10-13T13:30:49;99952.66;;;16.47
80962;BMP280;70424;55.154;14.722;2023-10-13T13:33:16;99938.16;;;16.47
80962;BMP280;70424;55.154;14.722;2023-10-13T13:35:42;99931.34;;;16.50
80962;BMP280;70424;55.154;14.722;2023-10-13T13:38:09;99916.16;;;16.51
80962;BMP280;70424;55.154;14.722;2023-10-13T13:40:55;99918.94;;;16.51
80962;BMP280;70424;55.154;14.722;2023-10-13T13:43:21;99912.16;;;16.56
80962;BMP280;70424;55.154;14.722;2023-10-13T13:46:25;99921.91;;;16.59
80962;BMP280;70424;55.154;14.722;2023-10-13T13:48:58;99917.91;;;16.64
80962;BMP280;70424;55.154;14.722;2023-10-13T13:51:26;99918.59;;;16.64
80962;BMP280;70424;55.154;14.722;2023-10-13T13:53:54;99920.75;;;16.68
80962;BMP280;70424;55.154;14.722;2023-10-13T13:56:20;99913.84;;;16.67
80962;BMP280;70424;55.154;14.722;2023-10-13T13:58:47;99920.75;;;16.66
80962;BMP280;70424;55.154;14.722;2023-10-13T14:01:12;99908.97;;;16.65
80962;BMP280;70424;55.154;14.722;2023-10-13T14:03:43;99917.91;;;16.64
80962;BMP280;70424;55.154;14.722;2023-10-13T14:06:21;99906.88;;;16.64
80962;BMP280;70424;55.154;14.722;2023-10-13T14:08:57;99912.38;;;16.64
80962;BMP280;70424;55.154;14.722;2023-10-13T14:11:27;99896.53;;;16.64
80962;BMP280;70424;55.154;14.722;2023-10-13T14:14:12;99893.06;;;16.64
80962;BMP280;70424;55.154;14.722;2023-10-13T14:16:41;99886.84;;;16.63
80962;BMP280;70424;55.154;14.722;2023-10-13T14:19:10;99886.16;;;16.63
80962;BMP280;70424;55.154;14.722;2023-10-13T14:21:36;99880.59;;;16.61
80962;BMP280;70424;55.154;14.722;2023-10-13T14:24:02;99870.91;;;16.60
80962;BMP280;70424;55.154;14.722;2023-10-13T14:26:28;99875.00;;;16.59
80962;BMP280;70424;55.154;14.722;2023-10-13T14:28:55;99871.53;;;16.58
80962;BMP280;70424;55.154;14.722;2023-10-13T14:31:39;99860.50;;;16.58
80962;BMP280;70424;55.154;14.722;2023-10-13T14:34:05;99854.28;;;16.58
80962;BMP280;70424;55.154;14.722;2023-10-13T14:36:33;99846.66;;;16.56
80962;BMP280;70424;55.154;14.722;2023-10-13T14:39:05;99844.59;;;16.55
80962;BMP280;70424;55.154;14.722;2023-10-13T14:41:35;99847.34;;;16.55
80962;BMP280;70424;55.154;14.722;2023-10-13T14:44:00;99843.88;;;16.54
80962;BMP280;70424;55.154;14.722;2023-10-13T14:46:30;99819.78;;;16.57